createdAt,value
2022-07-25T00:02:07.507Z,99722.13
2022-07-25T00:07:10.740Z,99722.09
2022-07-25T00:12:12.462Z,99724.00
2022-07-25T00:17:14.838Z,99710.97
2022-07-25T00:22:16.476Z,99708.59
2022-07-25T00:27:18.240Z,99703.22
2022-07-25T00:32:19.929Z,99708.19
2022-07-25T00:37:21.577Z,99707.97
2022-07-25T00:42:24.237Z,99702.56
2022-07-25T00:47:26.571Z,99703.78
2022-07-25T00:52:28.263Z,99703.88
2022-07-25T00:57:30.033Z,99696.81
2022-07-25T01:02:31.762Z,99685.84
2022-07-25T01:07:33.541Z,99688.22
2022-07-25T01:12:47.204Z,99682.03
2022-07-25T01:17:49.374Z,99693.00
2022-07-25T01:22:51.429Z,99682.03
2022-07-25T01:27:55.881Z,99679.50
2022-07-25T01:32:57.849Z,99665.09
2022-07-25T01:37:59.492Z,99660.84
2022-07-25T01:43:01.164Z,99659.78
2022-07-25T01:48:02.859Z,99662.72
2022-07-25T01:53:04.838Z,99653.41
2022-07-25T01:58:07.395Z,99648.47
2022-07-25T02:03:28.383Z,99647.44
2022-07-25T02:08:30.917Z,99641.78
2022-07-25T02:13:32.598Z,99643.84
2022-07-25T02:18:34.389Z,99639.06
2022-07-25T02:23:36.648Z,99644.53
2022-07-25T02:28:38.367Z,99635.78
2022-07-25T02:33:40.071Z,99635.56
2022-07-25T02:38:41.734Z,99630.97
2022-07-25T02:43:43.450Z,99632.69
2022-07-25T02:48:45.193Z,99621.38
2022-07-25T02:53:57.050Z,99628.09
2022-07-25T02:58:59.801Z,99623.50
2022-07-25T03:04:01.534Z,99617.66
2022-07-25T03:09:03.509Z,99622.69
2022-07-25T03:14:05.566Z,99618.69
2022-07-25T03:19:10.422Z,99617.03
2022-07-25T03:24:12.135Z,99608.91
2022-07-25T03:29:13.894Z,99610.38
2022-07-25T03:34:15.585Z,99609.50
2022-07-25T03:39:17.545Z,99612.44
2022-07-25T03:44:20.096Z,99594.06
2022-07-25T03:49:21.760Z,99595.72
2022-07-25T03:54:23.424Z,99607.84
2022-07-25T03:59:26.265Z,99596.13
2022-07-25T04:04:27.919Z,99598.81
2022-07-25T04:09:32.397Z,99578.84
2022-07-25T04:14:35.480Z,99581.22
2022-07-25T04:19:37.175Z,99578.25
2022-07-25T04:24:38.949Z,99567.97
2022-07-25T04:29:40.597Z,99557.81
2022-07-25T04:34:43.769Z,99557.25
2022-07-25T04:39:45.427Z,99550.06
2022-07-25T04:44:47.070Z,99543.50
2022-07-25T04:49:48.700Z,99536.09
2022-07-25T04:54:50.394Z,99533.19
2022-07-25T04:59:52.101Z,99537.25
2022-07-25T05:04:53.773Z,99519.91
2022-07-25T05:09:55.501Z,99517.56
2022-07-25T05:14:57.229Z,99516.06
2022-07-25T05:19:59.191Z,99501.19
2022-07-25T05:25:02.465Z,99504.09
2022-07-25T05:30:07.646Z,99495.38
2022-07-25T05:35:10.589Z,99498.25
2022-07-25T05:40:13.219Z,99491.25
2022-07-25T05:45:14.913Z,99488.59
2022-07-25T05:50:16.766Z,99480.28
2022-07-25T05:55:18.872Z,99481.34
2022-07-25T06:00:20.545Z,99476.09
2022-07-25T06:05:22.244Z,99471.63
2022-07-25T06:10:24.496Z,99459.56
2022-07-25T06:15:26.861Z,99459.22
2022-07-25T06:20:29.290Z,99454.63
2022-07-25T06:25:31.222Z,99447.78
2022-07-25T06:30:33.481Z,99447.66
2022-07-25T06:35:35.334Z,99442.28
2022-07-25T06:40:37.002Z,99431.56
2022-07-25T06:45:38.745Z,99431.72
2022-07-25T06:50:40.536Z,99413.94
2022-07-25T06:55:42.367Z,99404.41
2022-07-25T07:00:44.244Z,99404.56
2022-07-25T07:05:45.964Z,99385.94
2022-07-25T07:10:47.621Z,99378.09
2022-07-25T07:15:50.546Z,99390.06
2022-07-25T07:20:52.908Z,99372.78
2022-07-25T07:25:54.629Z,99376.94
2022-07-25T07:31:15.739Z,99376.47
2022-07-25T07:36:18.353Z,99369.00
2022-07-25T07:41:20.135Z,99364.09
2022-07-25T07:46:21.830Z,99353.03
2022-07-25T07:51:23.497Z,99344.50
2022-07-25T07:56:25.246Z,99339.22
2022-07-25T08:01:27.130Z,99334.53
2022-07-25T08:06:29.116Z,99335.22
2022-07-25T08:11:30.809Z,99333.78
2022-07-25T08:16:33.437Z,99325.25
2022-07-25T08:21:35.159Z,99326.53
2022-07-25T08:26:37.289Z,99321.56
2022-07-25T08:31:39.074Z,99321.31
2022-07-25T08:36:40.776Z,99317.09
2022-07-25T08:41:43.363Z,99309.19
2022-07-25T08:46:45.723Z,99319.94
2022-07-25T08:51:47.898Z,99303.44
2022-07-25T08:56:53.512Z,99302.28
2022-07-25T09:01:55.288Z,99297.72
2022-07-25T09:06:56.967Z,99294.69
2022-07-25T09:11:59.019Z,99303.84
2022-07-25T09:17:07.221Z,99290.00
2022-07-25T09:22:24.399Z,99287.03
2022-07-25T09:27:26.183Z,99279.75
2022-07-25T09:32:27.819Z,99278.75
2022-07-25T09:37:29.479Z,99273.91
2022-07-25T09:42:32.750Z,99281.13
2022-07-25T09:47:36.187Z,99273.81
2022-07-25T09:52:38.447Z,99270.97
2022-07-25T09:57:41.192Z,99272.28
2022-07-25T10:02:50.843Z,99256.63
2022-07-25T10:07:54.905Z,99248.28
2022-07-25T10:13:26.606Z,99242.22
2022-07-25T10:18:30.731Z,99221.78
2022-07-25T10:23:32.408Z,99237.81
2022-07-25T10:28:42.466Z,99228.53
2022-07-25T10:33:48.560Z,99221.13
2022-07-25T10:38:57.647Z,99209.66
2022-07-25T10:44:02.441Z,99212.44
2022-07-25T10:49:06.789Z,99212.72
2022-07-25T10:54:13.974Z,99194.75
2022-07-25T10:59:29.636Z,99172.59
2022-07-25T11:04:31.435Z,99166.34
2022-07-25T11:09:34.303Z,99169.69
2022-07-25T11:14:42.245Z,99173.25
2022-07-25T11:19:54.446Z,99157.50
2022-07-25T11:24:57.620Z,99158.03
2022-07-25T11:30:15.025Z,99161.41
2022-07-25T11:35:21.950Z,99145.22
2022-07-25T11:40:23.849Z,99139.47
2022-07-25T11:45:33.971Z,99136.94
2022-07-25T11:50:44.091Z,99116.72
2022-07-25T11:55:47.147Z,99113.44
2022-07-25T12:00:50.183Z,99102.91
2022-07-25T12:05:51.942Z,99094.06
2022-07-25T12:10:55.629Z,99098.22
2022-07-25T12:15:59.864Z,99095.69
2022-07-25T12:21:01.534Z,99082.31
2022-07-25T12:26:03.262Z,99072.38
2022-07-25T12:31:05.078Z,99072.53
2022-07-25T12:36:08.626Z,99069.94
2022-07-25T12:41:14.593Z,99058.94
2022-07-25T12:46:19.299Z,99056.97
2022-07-25T12:51:21.109Z,99050.47
2022-07-25T12:56:22.794Z,99038.50
2022-07-25T13:01:25.057Z,99032.09
2022-07-25T13:06:26.793Z,99022.06
2022-07-25T13:11:28.454Z,99021.19
2022-07-25T13:16:30.219Z,99009.03
2022-07-25T13:21:31.943Z,99006.91
2022-07-25T13:26:34.454Z,98988.91
2022-07-25T13:31:36.249Z,98988.44
2022-07-25T13:36:38.889Z,98977.00
2022-07-25T13:41:40.544Z,98967.97
2022-07-25T13:46:46.003Z,98956.44
2022-07-25T13:51:48.056Z,98955.41
2022-07-25T13:56:49.779Z,98949.25
2022-07-25T14:01:51.576Z,98933.91
2022-07-25T14:06:53.761Z,98930.47
2022-07-25T14:11:55.493Z,98925.63
2022-07-25T14:16:57.919Z,98924.53
2022-07-25T14:21:59.610Z,98913.09
2022-07-25T14:27:01.350Z,98907.44
2022-07-25T14:32:03.243Z,98901.84
2022-07-25T14:37:05.759Z,98901.50
2022-07-25T14:42:09.405Z,98893.03
2022-07-25T14:47:12.790Z,98888.53
2022-07-25T14:52:15.768Z,98879.53
2022-07-25T14:57:17.586Z,98864.38
2022-07-25T15:02:19.591Z,98859.19
2022-07-25T15:07:21.347Z,98842.88
2022-07-25T15:12:23.028Z,98838.03
2022-07-25T15:17:24.798Z,98829.13
2022-07-25T15:22:26.488Z,98822.25
2022-07-25T15:27:28.212Z,98820.94
2022-07-25T15:32:29.877Z,98817.22
2022-07-25T15:37:31.539Z,98818.00
2022-07-25T15:42:34.127Z,98812.22
2022-07-25T15:47:35.921Z,98801.19
2022-07-25T15:52:37.583Z,98788.97
2022-07-25T15:57:39.323Z,98790.09
2022-07-25T16:02:41.036Z,98778.38
2022-07-25T16:07:43.226Z,98777.34
2022-07-25T16:12:45.129Z,98767.09
2022-07-25T16:17:46.795Z,98760.88
2022-07-25T16:22:49.112Z,98749.97
2022-07-25T16:27:51.927Z,98738.41
2022-07-25T16:32:53.771Z,98739.41
2022-07-25T16:37:55.463Z,98721.56
2022-07-25T16:42:59.306Z,98723.56
2022-07-25T16:48:01.032Z,98715.56
2022-07-25T16:53:02.694Z,98714.03
2022-07-25T16:58:04.407Z,98698.69
2022-07-25T17:03:06.202Z,98699.91
2022-07-25T17:08:07.863Z,98678.06
2022-07-25T17:13:09.621Z,98679.47
2022-07-25T17:18:11.350Z,98681.72
2022-07-25T17:23:13.325Z,98684.44
2022-07-25T17:28:15.080Z,98686.34
2022-07-25T17:33:16.895Z,98695.25
2022-07-25T17:38:23.744Z,98681.22
2022-07-25T17:43:28.926Z,98699.56
2022-07-25T17:48:30.785Z,98691.06
2022-07-25T17:53:32.945Z,98701.81
2022-07-25T17:58:35.365Z,98686.53
2022-07-25T18:03:37.046Z,98679.84
2022-07-25T18:08:38.725Z,98723.47
2022-07-25T18:13:40.513Z,98844.66
2022-07-25T18:18:42.289Z,98853.06
2022-07-25T18:23:43.999Z,98855.03
2022-07-25T18:28:45.789Z,98874.06
2022-07-25T18:33:47.453Z,98852.94
2022-07-25T18:38:49.295Z,98840.63
2022-07-25T18:43:52.962Z,98865.72
2022-07-25T18:48:54.650Z,98879.56
2022-07-25T18:53:56.288Z,98888.47
2022-07-25T18:58:58.161Z,98869.34
2022-07-25T19:04:01.810Z,98880.19
2022-07-25T19:09:04.149Z,98888.25
2022-07-25T19:14:05.979Z,98891.53
2022-07-25T19:19:09.618Z,98880.59
2022-07-25T19:24:12.228Z,98879.34
2022-07-25T19:29:15.593Z,98869.72
2022-07-25T19:34:17.291Z,98872.97
2022-07-25T19:39:18.977Z,98874.44
2022-07-25T19:44:23.345Z,98875.81
2022-07-25T19:49:25.004Z,98910.09
2022-07-25T19:54:26.717Z,98927.50
2022-07-25T19:59:28.654Z,98915.69
2022-07-25T20:04:30.963Z,98917.75
2022-07-25T20:09:34.901Z,98944.56
2022-07-25T20:14:36.589Z,98909.84
2022-07-25T20:19:38.341Z,98893.31
2022-07-25T20:24:40.611Z,98877.66
2022-07-25T20:29:42.438Z,98872.47
2022-07-25T20:34:45.353Z,98891.47
2022-07-25T20:39:47.041Z,98892.31
2022-07-25T20:44:50.031Z,98895.88
2022-07-25T20:49:51.689Z,98887.63
2022-07-25T20:54:53.785Z,98886.56
2022-07-25T20:59:55.497Z,98896.41
2022-07-25T21:04:57.172Z,98903.53
2022-07-25T21:09:58.940Z,98885.97
2022-07-25T21:15:01.377Z,98887.91
2022-07-25T21:20:04.080Z,98903.81
2022-07-25T21:25:06.099Z,98907.44
2022-07-25T21:30:09.950Z,98914.56
2022-07-25T21:35:11.701Z,98914.25
2022-07-25T21:40:13.433Z,98924.72
2022-07-25T21:45:15.808Z,98896.19
2022-07-25T21:50:35.819Z,98902.75
2022-07-25T21:55:45.660Z,98911.47
2022-07-25T22:00:47.420Z,98926.31
2022-07-25T22:05:49.137Z,98940.38
2022-07-25T22:10:50.945Z,98934.56
2022-07-25T22:15:53.820Z,98927.72
2022-07-25T22:20:55.617Z,98933.22
2022-07-25T22:25:57.267Z,98944.44
2022-07-25T22:30:59.137Z,98969.72
2022-07-25T22:36:01.439Z,98987.91
2022-07-25T22:41:03.255Z,98993.31
2022-07-25T22:46:05.036Z,99014.81
2022-07-25T22:51:06.708Z,99011.88
2022-07-25T22:56:08.505Z,99024.00
2022-07-25T23:01:11.000Z,99024.59
2022-07-25T23:06:13.053Z,99025.44
2022-07-25T23:11:14.803Z,99047.91
2022-07-25T23:16:16.644Z,99060.50
2022-07-25T23:21:18.400Z,99087.09
2022-07-25T23:26:20.070Z,99121.56
2022-07-25T23:31:21.952Z,99144.25
2022-07-25T23:36:23.627Z,99150.19
2022-07-25T23:41:25.264Z,99171.84
2022-07-25T23:46:29.528Z,99164.47
2022-07-25T23:51:33.289Z,99175.22
2022-07-25T23:56:34.932Z,99182.75
